sensor_id;sensor_type;location;lat;lon;timestamp;pressure;altitude;pressure_sealevel;temperature;humidity
22283;BME280;11310;51.528;21.204;2023-03-15T00:01:38;98303.84;;;9.74;100.00
22283;BME280;11310;51.528;21.204;2023-03-15T00:04:06;98307.63;;;9.70;100.00
22283;BME280;11310;51.528;21.204;2023-03-15T00:06:35;98306.78;;;9.69;100.00
22283;BME280;11310;51.528;21.204;2023-03-15T00:09:03;98297.91;;;9.72;100.00
22283;BME280;11310;51.528;21.204;2023-03-15T00:11:32;98309.09;;;9.74;100.00
22283;BME280;11310;51.528;21.204;2023-03-15T00:14:02;98309.09;;;9.74;100.00
22283;BME280;11310;51.528;21.204;2023-03-15T00:16:32;98313.88;;;9.80;100.00
22283;BME280;11310;51.528;21.204;2023-03-15T00:19:00;98331.06;;;9.84;100.00
22283;BME280;11310;51.528;21.204;2023-03-15T00:21:29;98335.16;;;9.88;100.00
22283;BME280;11310;51.528;21.204;2023-03-15T00:23:57;98332.09;;;9.94;100.00
22283;BME280;11310;51.528;21.204;2023-03-15T00:26:26;98332.59;;;9.99;100.00
22283;BME280;11310;51.528;21.204;2023-03-15T00:28:57;98341.19;;;10.01;100.00
22283;BME280;11310;51.528;21.204;2023-03-15T00:31:28;98346.97;;;10.06;100.00
22283;BME280;11310;51.528;21.204;2023-03-15T00:33:57;98346.63;;;10.10;100.00
22283;BME280;11310;51.528;21.204;2023-03-15T00:36:25;98348.84;;;10.16;100.00
22283;BME280;11310;51.528;21.204;2023-03-15T00:38:55;98355.66;;;10.19;100.00
22283;BME280;11310;51.528;21.204;2023-03-15T00:41:24;98355.66;;;10.19;100.00
22283;BME280;11310;51.528;21.204;2023-03-15T00:43:52;98370.31;;;10.21;100.00
22283;BME280;11310;51.528;21.204;2023-03-15T00:46:20;98379.75;;;10.24;100.00
22283;BME280;11310;51.528;21.204;2023-03-15T00:48:51;98384.03;;;10.25;100.00
22283;BME280;11310;51.528;21.204;2023-03-15T00:51:21;98387.59;;;10.24;100.00
22283;BME280;11310;51.528;21.204;2023-03-15T00:53:51;98391.19;;;10.23;100.00
22283;BME280;11310;51.528;21.204;2023-03-15T00:56:23;98400.91;;;10.21;100.00
22283;BME280;11310;51.528;21.204;2023-03-15T00:58:52;98396.81;;;10.17;100.00
22283;BME280;11310;51.528;21.204;2023-03-15T01:01:23;98412.78;;;10.14;100.00
22283;BME280;11310;51.528;21.204;2023-03-15T01:03:54;98427.44;;;10.04;100.00
22283;BME280;11310;51.528;21.204;2023-03-15T01:06:26;98452.03;;;9.64;100.00
22283;BME280;11310;51.528;21.204;2023-03-15T01:08:58;98472.28;;;8.96;100.00
22283;BME280;11310;51.528;21.204;2023-03-15T01:11:27;98487.41;;;8.37;100.00
22283;BME280;11310;51.528;21.204;2023-03-15T01:13:57;98496.81;;;7.97;100.00
22283;BME280;11310;51.528;21.204;2023-03-15T01:16:27;98505.13;;;7.60;100.00
22283;BME280;11310;51.528;21.204;2023-03-15T01:18:57;98520.13;;;7.27;100.00
22283;BME280;11310;51.528;21.204;2023-03-15T01:21:26;98537.19;;;7.02;100.00
22283;BME280;11310;51.528;21.204;2023-03-15T01:23:55;98553.19;;;6.80;100.00
22283;BME280;11310;51.528;21.204;2023-03-15T01:26:25;98565.59;;;6.60;100.00
22283;BME280;11310;51.528;21.204;2023-03-15T01:28:54;98569.34;;;6.39;100.00
22283;BME280;11310;51.528;21.204;2023-03-15T01:31:26;98588.34;;;6.24;100.00
22283;BME280;11310;51.528;21.204;2023-03-15T01:33:58;98599.56;;;6.09;100.00
22283;BME280;11310;51.528;21.204;2023-03-15T01:36:36;98614.97;;;5.96;100.00
22283;BME280;11310;51.528;21.204;2023-03-15T01:39:05;98626.69;;;5.88;100.00
22283;BME280;11310;51.528;21.204;2023-03-15T01:41:40;98628.78;;;5.80;100.00
22283;BME280;11310;51.528;21.204;2023-03-15T01:44:11;98636.88;;;5.74;100.00
22283;BME280;11310;51.528;21.204;2023-03-15T01:46:42;98653.56;;;5.70;100.00
22283;BME280;11310;51.528;21.204;2023-03-15T01:49:23;98658.91;;;5.67;100.00
22283;BME280;11310;51.528;21.204;2023-03-15T01:51:56;98669.44;;;5.64;100.00
22283;BME280;11310;51.528;21.204;2023-03-15T01:54:35;98678.31;;;5.60;100.00
22283;BME280;11310;51.528;21.204;2023-03-15T01:57:08;98691.47;;;5.57;100.00
22283;BME280;11310;51.528;21.204;2023-03-15T01:59:39;98700.25;;;5.54;100.00
22283;BME280;11310;51.528;21.204;2023-03-15T02:02:09;98710.72;;;5.53;100.00
22283;BME280;11310;51.528;21.204;2023-03-15T02:04:46;98703.06;;;5.50;100.00
22283;BME280;11310;51.528;21.204;2023-03-15T02:07:19;98725.78;;;5.46;100.00
22283;BME280;11310;51.528;21.204;2023-03-15T02:09:52;98732.09;;;5.41;100.00
22283;BME280;11310;51.528;21.204;2023-03-15T02:12:25;98740.13;;;5.36;100.00
22283;BME280;11310;51.528;21.204;2023-03-15T02:14:55;98750.72;;;5.32;100.00
22283;BME280;11310;51.528;21.204;2023-03-15T02:17:32;98756.13;;;5.27;100.00
22283;BME280;11310;51.528;21.204;2023-03-15T02:20:16;98753.66;;;5.24;100.00
22283;BME280;11310;51.528;21.204;2023-03-15T02:22:52;98777.97;;;5.23;100.00
22283;BME280;11310;51.528;21.204;2023-03-15T02:25:31;98787.50;;;5.23;100.00
22283;BME280;11310;51.528;21.204;2023-03-15T02:28:05;98806.63;;;5.22;100.00
22283;BME280;11310;51.528;21.204;2023-03-15T02:30:35;98803.28;;;5.20;100.00
22283;BME280;11310;51.528;21.204;2023-03-15T02:33:07;98813.78;;;5.17;100.00
22283;BME280;11310;51.528;21.204;2023-03-15T02:35:40;98817.44;;;5.13;100.00
22283;BME280;11310;51.528;21.204;2023-03-15T02:38:08;98816.66;;;5.11;100.00
22283;BME280;11310;51.528;21.204;2023-03-15T02:40:37;98835.03;;;5.06;100.00
22283;BME280;11310;51.528;21.204;2023-03-15T02:43:10;98843.09;;;5.00;100.00
22283;BME280;11310;51.528;21.204;2023-03-15T02:45:41;98845.88;;;4.96;100.00
22283;BME280;11310;51.528;21.204;2023-03-15T02:48:10;98856.44;;;4.93;100.00
22283;BME280;11310;51.528;21.204;2023-03-15T02:50:39;98858.22;;;4.91;100.00
22283;BME280;11310;51.528;21.204;2023-03-15T02:53:08;98859.19;;;4.88;100.00
22283;BME280;11310;51.528;21.204;2023-03-15T02:55:38;98872.25;;;4.87;100.00
22283;BME280;11310;51.528;21.204;2023-03-15T02:58:08;98877.59;;;4.84;100.00
22283;BME280;11310;51.528;21.204;2023-03-15T03:00:36;98882.00;;;4.82;100.00
22283;BME280;11310;51.528;21.204;2023-03-15T03:03:05;98894.22;;;4.80;100.00
22283;BME280;11310;51.528;21.204;2023-03-15T03:05:34;98896.09;;;4.76;100.00
22283;BME280;11310;51.528;21.204;2023-03-15T03:08:03;98906.47;;;4.76;100.00
22283;BME280;11310;51.528;21.204;2023-03-15T03:10:32;98915.97;;;4.77;100.00
22283;BME280;11310;51.528;21.204;2023-03-15T03:13:01;98917.75;;;4.75;100.00
22283;BME280;11310;51.528;21.204;2023-03-15T03:15:34;98924.72;;;4.75;100.00
22283;BME280;11310;51.528;21.204;2023-03-15T03:18:04;98923.91;;;4.73;100.00
22283;BME280;11310;51.528;21.204;2023-03-15T03:20:33;98913.53;;;4.73;100.00
22283;BME280;11310;51.528;21.204;2023-03-15T03:23:01;98914.44;;;4.72;100.00
22283;BME280;11310;51.528;21.204;2023-03-15T03:25:32;98924.94;;;4.69;100.00
22283;BME280;11310;51.528;21.204;2023-03-15T03:28:02;98922.44;;;4.67;100.00
22283;BME280;11310;51.528;21.204;2023-03-15T03:30:35;98919.09;;;4.64;100.00
22283;BME280;11310;51.528;21.204;2023-03-15T03:33:04;98922.66;;;4.61;100.00
22283;BME280;11310;51.528;21.204;2023-03-15T03:35:33;98927.81;;;4.63;100.00
22283;BME280;11310;51.528;21.204;2023-03-15T03:38:01;98929.56;;;4.62;100.00
22283;BME280;11310;51.528;21.204;2023-03-15T03:40:35;98934.00;;;4.59;100.00
22283;BME280;11310;51.528;21.204;2023-03-15T03:43:06;98941.84;;;4.57;100.00
22283;BME280;11310;51.528;21.204;2023-03-15T03:45:36;98947.91;;;4.58;100.00
22283;BME280;11310;51.528;21.204;2023-03-15T03:48:05;98956.72;;;4.54;100.00
22283;BME280;11310;51.528;21.204;2023-03-15T03:50:34;98963.94;;;4.46;100.00
22283;BME280;11310;51.528;21.204;2023-03-15T03:53:03;98970.91;;;4.45;100.00
22283;BME280;11310;51.528;21.204;2023-03-15T03:55:33;98989.16;;;4.44;100.00
22283;BME280;11310;51.528;21.204;2023-03-15T03:58:02;98984.88;;;4.43;100.00
22283;BME280;11310;51.528;21.204;2023-03-15T04:00:40;98991.84;;;4.41;100.00
22283;BME280;11310;51.528;21.204;2023-03-15T04:03:10;98985.94;;;4.37;100.00
22283;BME280;11310;51.528;21.204;2023-03-15T04:05:43;98995.53;;;4.35;100.00
22283;BME280;11310;51.528;21.204;2023-03-15T04:08:17;99004.16;;;4.36;100.00
22283;BME280;11310;51.528;21.204;2023-03-15T04:10:50;99019.72;;;4.36;100.00
22283;BME280;11310;51.528;21.204;2023-03-15T04:13:21;99030.31;;;4.31;100.00
22283;BME280;11310;51.528;21.204;2023-03-15T04:15:51;99033.84;;;4.29;100.00
22283;BME280;11310;51.528;21.204;2023-03-15T04:18:28;99041.75;;;4.26;100.00
22283;BME280;11310;51.528;21.204;2023-03-15T04:20:57;99047.75;;;4.28;100.00
22283;BME280;11310;51.528;21.204;2023-03-15T04:23:26;99049.53;;;4.26;100.00
22283;BME280;11310;51.528;21.204;2023-03-15T04:26:17;99062.56;;;4.24;100.00
22283;BME280;11310;51.528;21.204;2023-03-15T04:28:57;99068.66;;;4.23;100.00
22283;BME280;11310;51.528;21.204;2023-03-15T04:31:47;99071.31;;;4.22;100.00
22283;BME280;11310;51.528;21.204;2023-03-15T04:34:21;99076.50;;;4.22;100.00
22283;BME280;11310;51.528;21.204;2023-03-15T04:37:04;99076.50;;;4.22;100.00
22283;BME280;11310;51.528;21.204;2023-03-15T04:39:53;99087.78;;;4.21;100.00
22283;BME280;11310;51.528;21.204;2023-03-15T04:42:49;99088.69;;;4.20;100.00
22283;BME280;11310;51.528;21.204;2023-03-15T04:45:30;99080.03;;;4.19;100.00
22283;BME280;11310;51.528;21.204;2023-03-15T04:48:21;99082.81;;;4.15;100.00
22283;BME280;11310;51.528;21.204;2023-03-15T04:51:15;99095.09;;;4.10;100.00
22283;BME280;11310;51.528;21.204;2023-03-15T04:54:04;99101.31;;;4.06;100.00
22283;BME280;11310;51.528;21.204;2023-03-15T04:57:06;99101.41;;;4.03;100.00
22283;BME280;11310;51.528;21.204;2023-03-15T04:59:44;99107.50;;;4.02;100.00
22283;BME280;11310;51.528;21.204;2023-03-15T05:02:46;99111.78;;;4.03;100.00
22283;BME280;11310;51.528;21.204;2023-03-15T05:05:47;99111.09;;;3.98;100.00
22283;BME280;11310;51.528;21.204;2023-03-15T05:08:36;99121.56;;;3.95;100.00
22283;BME280;11310;51.528;21.204;2023-03-15T05:11:24;99131.13;;;3.94;100.00
22283;BME280;11310;51.528;21.204;2023-03-15T05:14:16;99131.84;;;3.98;100.00
22283;BME280;11310;51.528;21.204;2023-03-15T05:17:03;99130.94;;;3.99;100.00
22283;BME280;11310;51.528;21.204;2023-03-15T05:19:51;99141.38;;;3.97;100.00
22283;BME280;11310;51.528;21.204;2023-03-15T05:22:42;99146.56;;;3.97;100.00
22283;BME280;11310;51.528;21.204;2023-03-15T05:25:36;99152.59;;;3.98;100.00
22283;BME280;11310;51.528;21.204;2023-03-15T05:28:37;99153.50;;;3.97;100.00
22283;BME280;11310;51.528;21.204;2023-03-15T05:31:29;99158.69;;;3.97;100.00
22283;BME280;11310;51.528;21.204;2023-03-15T05:34:26;99161.16;;;4.00;100.00
22283;BME280;11310;51.528;21.204;2023-03-15T05:37:18;99169.75;;;4.02;100.00
22283;BME280;11310;51.528;21.204;2023-03-15T05:40:15;99171.44;;;4.03;100.00
22283;BME280;11310;51.528;21.204;2023-03-15T05:42:55;99176.63;;;4.03;100.00
22283;BME280;11310;51.528;21.204;2023-03-15T05:45:50;99179.31;;;4.00;100.00
22283;BME280;11310;51.528;21.204;2023-03-15T05:57:48;99191.94;;;4.10;100.00
22283;BME280;11310;51.528;21.204;2023-03-15T06:00:26;99203.28;;;4.08;100.00
22283;BME280;11310;51.528;21.204;2023-03-15T06:03:02;99208.47;;;4.08;100.00
22283;BME280;11310;51.528;21.204;2023-03-15T06:05:43;99213.66;;;4.08;100.00
22283;BME280;11310;51.528;21.204;2023-03-15T06:08:16;99214.53;;;4.08;100.00
22283;BME280;11310;51.528;21.204;2023-03-15T06:10:48;99216.16;;;4.11;100.00
22283;BME280;11310;51.528;21.204;2023-03-15T06:13:18;99220.41;;;4.13;100.00
22283;BME280;11310;51.528;21.204;2023-03-15T06:15:47;99229.75;;;4.19;100.00
22283;BME280;11310;51.528;21.204;2023-03-15T06:18:17;99233.91;;;4.23;100.00
22283;BME280;11310;51.528;21.204;2023-03-15T06:20:48;99233.03;;;4.24;100.00
22283;BME280;11310;51.528;21.204;2023-03-15T06:23:18;99240.72;;;4.25;100.00
22283;BME280;11310;51.528;21.204;2023-03-15T06:25:48;99251.97;;;4.26;100.00
22283;BME280;11310;51.528;21.204;2023-03-15T06:28:19;99257.13;;;4.27;100.00
22283;BME280;11310;51.528;21.204;2023-03-15T06:30:53;99266.59;;;4.28;100.00
22283;BME280;11310;51.528;21.204;2023-03-15T06:33:28;99275.13;;;4.32;100.00
22283;BME280;11310;51.528;21.204;2023-03-15T06:35:59;99276.84;;;4.33;100.00
22283;BME280;11310;51.528;21.204;2023-03-15T06:38:28;99286.22;;;4.37;100.00
22283;BME280;11310;51.528;21.204;2023-03-15T06:40:57;99287.81;;;4.41;100.00
22283;BME280;11310;51.528;21.204;2023-03-15T06:43:30;99283.31;;;4.46;100.00
22283;BME280;11310;51.528;21.204;2023-03-15T06:46:00;99285.13;;;4.44;99.46
22283;BME280;11310;51.528;21.204;2023-03-15T06:48:31;99297.25;;;4.43;99.69
22283;BME280;11310;51.528;21.204;2023-03-15T06:51:00;99291.09;;;4.46;100.00
22283;BME280;11310;51.528;21.204;2023-03-15T06:53:31;99299.75;;;4.46;100.00
22283;BME280;11310;51.528;21.204;2023-03-15T06:56:00;99305.88;;;4.44;99.62
22283;BME280;11310;51.528;21.204;2023-03-15T06:58:30;99308.69;;;4.38;99.18
22283;BME280;11310;51.528;21.204;2023-03-15T07:00:59;99320.69;;;4.42;98.96
22283;BME280;11310;51.528;21.204;2023-03-15T07:03:28;99320.69;;;4.42;98.17
22283;BME280;11310;51.528;21.204;2023-03-15T07:05:57;99320.78;;;4.39;97.38
22283;BME280;11310;51.528;21.204;2023-03-15T07:08:26;99315.59;;;4.39;97.53
22283;BME280;11310;51.528;21.204;2023-03-15T07:10:54;99324.97;;;4.43;97.62
22283;BME280;11310;51.528;21.204;2023-03-15T07:13:24;99337.69;;;4.50;97.32
22283;BME280;11310;51.528;21.204;2023-03-15T07:15:55;99332.41;;;4.53;96.61
22283;BME280;11310;51.528;21.204;2023-03-15T07:18:24;99336.50;;;4.60;96.17
22283;BME280;11310;51.528;21.204;2023-03-15T07:20:56;99342.19;;;4.71;96.72
22283;BME280;11310;51.528;21.204;2023-03-15T07:23:25;99346.19;;;4.81;96.05
22283;BME280;11310;51.528;21.204;2023-03-15T07:25:54;99340.06;;;4.82;96.22
22283;BME280;11310;51.528;21.204;2023-03-15T07:28:25;99353.94;;;4.83;96.43
22283;BME280;11310;51.528;21.204;2023-03-15T07:30:57;99349.59;;;4.82;95.49
22283;BME280;11310;51.528;21.204;2023-03-15T07:33:28;99366.97;;;4.81;95.95
22283;BME280;11310;51.528;21.204;2023-03-15T07:35:57;99378.09;;;4.85;96.49
22283;BME280;11310;51.528;21.204;2023-03-15T07:38:26;99380.59;;;4.88;96.81
22283;BME280;11310;51.528;21.204;2023-03-15T07:40:56;99398.72;;;4.89;95.87
22283;BME280;11310;51.528;21.204;2023-03-15T07:43:25;99404.78;;;4.90;96.06
22283;BME280;11310;51.528;21.204;2023-03-15T07:46:07;99402.91;;;4.93;95.98
22283;BME280;11310;51.528;21.204;2023-03-15T07:48:36;99403.69;;;4.97;95.53
22283;BME280;11310;51.528;21.204;2023-03-15T07:51:05;99401.97;;;4.96;95.48
22283;BME280;11310;51.528;21.204;2023-03-15T07:53:33;99403.91;;;4.89;95.39
22283;BME280;11310;51.528;21.204;2023-03-15T07:56:04;99415.34;;;4.85;94.90
22283;BME280;11310;51.528;21.204;2023-03-15T07:58:33;99409.38;;;4.82;96.59
22283;BME280;11310;51.528;21.204;2023-03-15T08:01:01;99412.56;;;4.90;95.53
22283;BME280;11310;51.528;21.204;2023-03-15T08:03:32;99422.66;;;4.99;94.08
22283;BME280;11310;51.528;21.204;2023-03-15T08:06:01;99419.75;;;5.08;93.79
22283;BME280;11310;51.528;21.204;2023-03-15T08:08:30;99432.22;;;5.23;93.58
22283;BME280;11310;51.528;21.204;2023-03-15T08:10:59;99437.00;;;5.35;92.97
22283;BME280;11310;51.528;21.204;2023-03-15T08:13:28;99444.22;;;5.51;92.63
22283;BME280;11310;51.528;21.204;2023-03-15T08:15:56;99456.72;;;5.65;90.40
22283;BME280;11310;51.528;21.204;2023-03-15T08:18:25;99453.03;;;5.72;90.60
22283;BME280;11310;51.528;21.204;2023-03-15T08:20:57;99461.56;;;5.75;90.25
22283;BME280;11310;51.528;21.204;2023-03-15T08:23:26;99455.59;;;5.73;90.36
22283;BME280;11310;51.528;21.204;2023-03-15T08:25:55;99452.31;;;5.68;90.37
22283;BME280;11310;51.528;21.204;2023-03-15T08:28:24;99462.91;;;5.62;89.99
22283;BME280;11310;51.528;21.204;2023-03-15T08:30:52;99456.72;;;5.65;91.23
22283;BME280;11310;51.528;21.204;2023-03-15T08:33:21;99459.63;;;5.82;88.72
22283;BME280;11310;51.528;21.204;2023-03-15T08:35:53;99461.50;;;6.01;88.40
22283;BME280;11310;51.528;21.204;2023-03-15T08:38:24;99463.50;;;6.18;87.28
22283;BME280;11310;51.528;21.204;2023-03-15T08:40:55;99471.75;;;6.29;88.03
22283;BME280;11310;51.528;21.204;2023-03-15T08:43:23;99471.47;;;6.36;86.87
22283;BME280;11310;51.528;21.204;2023-03-15T08:45:52;99463.22;;;6.47;87.80
22283;BME280;11310;51.528;21.204;2023-03-15T08:48:27;99464.81;;;6.51;87.98
22283;BME280;11310;51.528;21.204;2023-03-15T08:51:01;99473.78;;;6.44;88.74
22283;BME280;11310;51.528;21.204;2023-03-15T08:53:31;99475.59;;;6.42;87.75
22283;BME280;11310;51.528;21.204;2023-03-15T08:56:00;99481.25;;;6.53;87.75
22283;BME280;11310;51.528;21.204;2023-03-15T08:58:30;99489.25;;;6.70;86.26
22283;BME280;11310;51.528;21.204;2023-03-15T09:00:59;99494.97;;;6.79;83.50
22283;BME280;11310;51.528;21.204;2023-03-15T09:03:27;99498.94;;;6.88;84.19
22283;BME280;11310;51.528;21.204;2023-03-15T09:05:59;99485.84;;;6.89;83.77
22283;BME280;11310;51.528;21.204;2023-03-15T09:08:27;99496.59;;;6.82;84.22
22283;BME280;11310;51.528;21.204;2023-03-15T09:11:00;99486.09;;;6.62;84.94
22283;BME280;11310;51.528;21.204;2023-03-15T09:13:30;99493.47;;;6.51;84.29
22283;BME280;11310;51.528;21.204;2023-03-15T09:15:58;99500.13;;;6.36;83.18
22283;BME280;11310;51.528;21.204;2023-03-15T09:18:27;99505.16;;;6.41;85.41
22283;BME280;11310;51.528;21.204;2023-03-15T09:20:56;99503.00;;;6.52;85.91
22283;BME280;11310;51.528;21.204;2023-03-15T09:23:24;99502.09;;;6.53;84.30
22283;BME280;11310;51.528;21.204;2023-03-15T09:25:53;99503.53;;;6.60;84.78
22283;BME280;11310;51.528;21.204;2023-03-15T09:28:24;99493.41;;;6.52;82.60
22283;BME280;11310;51.528;21.204;2023-03-15T09:30:53;99492.69;;;6.49;84.31
22283;BME280;11310;51.528;21.204;2023-03-15T09:33:23;99490.50;;;6.60;83.12
22283;BME280;11310;51.528;21.204;2023-03-15T09:35:52;99492.00;;;6.88;83.31
22283;BME280;11310;51.528;21.204;2023-03-15T09:38:21;99489.72;;;7.01;80.98
22283;BME280;11310;51.528;21.204;2023-03-15T09:40:55;99501.81;;;6.82;78.75
22283;BME280;11310;51.528;21.204;2023-03-15T09:43:50;99497.25;;;7.08;76.66
22283;BME280;11310;51.528;21.204;2023-03-15T09:46:25;99494.88;;;7.24;81.39
22283;BME280;11310;51.528;21.204;2023-03-15T09:49:00;99502.19;;;7.36;79.36
22283;BME280;11310;51.528;21.204;2023-03-15T09:51:37;99499.97;;;7.27;80.26
22283;BME280;11310;51.528;21.204;2023-03-15T09:54:10;99511.91;;;7.11;81.52
22283;BME280;11310;51.528;21.204;2023-03-15T09:56:43;99511.09;;;6.89;78.80
22283;BME280;11310;51.528;21.204;2023-03-15T09:59:17;99506.47;;;6.74;81.99
22283;BME280;11310;51.528;21.204;2023-03-15T10:01:50;99511.16;;;6.87;80.10
22283;BME280;11310;51.528;21.204;2023-03-15T10:04:26;99496.16;;;7.14;80.42
22283;BME280;11310;51.528;21.204;2023-03-15T10:06:57;99513.22;;;7.42;79.89
22283;BME280;11310;51.528;21.204;2023-03-15T10:09:30;99514.34;;;7.77;75.43
22283;BME280;11310;51.528;21.204;2023-03-15T10:12:02;99524.41;;;7.86;77.71
22283;BME280;11310;51.528;21.204;2023-03-15T10:14:47;99526.22;;;7.64;75.82
22283;BME280;11310;51.528;21.204;2023-03-15T10:17:31;99529.81;;;7.61;74.96
22283;BME280;11310;51.528;21.204;2023-03-15T10:20:09;99526.22;;;7.84;77.03
22283;BME280;11310;51.528;21.204;2023-03-15T10:22:45;99525.59;;;8.17;76.81
22283;BME280;11310;51.528;21.204;2023-03-15T10:25:19;99516.00;;;8.38;74.03
22283;BME280;11310;51.528;21.204;2023-03-15T10:27:53;99528.63;;;8.47;71.41
22283;BME280;11310;51.528;21.204;2023-03-15T10:30:27;99536.34;;;8.68;74.16
22283;BME280;11310;51.528;21.204;2023-03-15T10:33:01;99532.91;;;8.68;73.41
22283;BME280;11310;51.528;21.204;2023-03-15T10:35:32;99534.28;;;8.93;74.36
22283;BME280;11310;51.528;21.204;2023-03-15T10:38:01;99537.66;;;9.14;73.23
22283;BME280;11310;51.528;21.204;2023-03-15T10:40:41;99537.09;;;9.07;69.95
22283;BME280;11310;51.528;21.204;2023-03-15T10:43:18;99555.09;;;8.78;67.73
22283;BME280;11310;51.528;21.204;2023-03-15T10:45:59;99549.19;;;8.16;73.52
22283;BME280;11310;51.528;21.204;2023-03-15T10:48:30;99548.69;;;8.08;77.36
22283;BME280;11310;51.528;21.204;2023-03-15T10:51:03;99550.81;;;8.38;74.90
22283;BME280;11310;51.528;21.204;2023-03-15T10:53:32;99549.13;;;8.93;74.06
22283;BME280;11310;51.528;21.204;2023-03-15T10:56:04;99554.22;;;9.31;70.32
22283;BME280;11310;51.528;21.204;2023-03-15T10:58:40;99568.19;;;9.49;69.25
22283;BME280;11310;51.528;21.204;2023-03-15T11:01:21;99550.78;;;9.31;70.88
22283;BME280;11310;51.528;21.204;2023-03-15T11:04:01;99552.13;;;9.21;69.03
22283;BME280;11310;51.528;21.204;2023-03-15T11:06:39;99548.38;;;9.26;67.25
22283;BME280;11310;51.528;21.204;2023-03-15T11:09:11;99552.91;;;9.23;70.79
22283;BME280;11310;51.528;21.204;2023-03-15T11:14:33;99564.19;;;9.42;59.61
22283;BME280;11310;51.528;21.204;2023-03-15T11:17:07;99559.00;;;9.59;70.01
22283;BME280;11310;51.528;21.204;2023-03-15T11:19:39;99558.22;;;9.74;68.90
22283;BME280;11310;51.528;21.204;2023-03-15T11:22:11;99562.97;;;9.66;66.98
22283;BME280;11310;51.528;21.204;2023-03-15T11:24:41;99556.66;;;9.17;69.39
22283;BME280;11310;51.528;21.204;2023-03-15T11:27:11;99555.38;;;8.72;72.55
22283;BME280;11310;51.528;21.204;2023-03-15T11:29:42;99554.88;;;8.64;74.64
22283;BME280;11310;51.528;21.204;2023-03-15T11:32:18;99543.19;;;8.71;74.02
22283;BME280;11310;51.528;21.204;2023-03-15T11:34:54;99546.03;;;8.66;71.77
22283;BME280;11310;51.528;21.204;2023-03-15T11:37:28;99551.25;;;8.48;71.93
22283;BME280;11310;51.528;21.204;2023-03-15T11:40:04;99545.50;;;8.20;72.56
22283;BME280;11310;51.528;21.204;2023-03-15T11:42:45;99547.88;;;8.06;74.96
22283;BME280;11310;51.528;21.204;2023-03-15T11:45:19;99537.06;;;7.95;75.45
22283;BME280;11310;51.528;21.204;2023-03-15T11:47:55;99551.16;;;7.91;75.20
22283;BME280;11310;51.528;21.204;2023-03-15T11:50:26;99547.66;;;7.72;76.09
22283;BME280;11310;51.528;21.204;2023-03-15T11:52:55;99555.31;;;7.55;76.45
22283;BME280;11310;51.528;21.204;2023-03-15T11:55:31;99553.19;;;7.43;77.47
22283;BME280;11310;51.528;21.204;2023-03-15T11:58:27;99554.63;;;7.30;71.53
22283;BME280;11310;51.528;21.204;2023-03-15T12:01:00;99555.88;;;7.20;77.05
22283;BME280;11310;51.528;21.204;2023-03-15T12:03:34;99567.38;;;7.16;78.81
22283;BME280;11310;51.528;21.204;2023-03-15T12:06:35;99570.16;;;7.11;74.60
22283;BME280;11310;51.528;21.204;2023-03-15T12:09:40;99574.88;;;7.02;72.95
22283;BME280;11310;51.528;21.204;2023-03-15T12:12:35;99572.69;;;6.91;70.62
22283;BME280;11310;51.528;21.204;2023-03-15T12:18:02;99581.28;;;6.93;77.52
22283;BME280;11310;51.528;21.204;2023-03-15T12:20:34;99587.72;;;6.85;69.55
22283;BME280;11310;51.528;21.204;2023-03-15T12:23:20;99594.63;;;6.86;74.14
22283;BME280;11310;51.528;21.204;2023-03-15T12:25:53;99577.41;;;6.82;77.09
22283;BME280;11310;51.528;21.204;2023-03-15T12:28:27;99584.44;;;6.80;77.27
22283;BME280;11310;51.528;21.204;2023-03-15T12:30:59;99590.09;;;6.91;75.24
22283;BME280;11310;51.528;21.204;2023-03-15T12:33:29;99586.09;;;6.82;69.58
22283;BME280;11310;51.528;21.204;2023-03-15T12:36:07;99594.69;;;6.84;73.70
22283;BME280;11310;51.528;21.204;2023-03-15T12:38:38;99592.06;;;6.84;75.74
22283;BME280;11310;51.528;21.204;2023-03-15T12:41:33;99597.91;;;6.91;75.81
22283;BME280;11310;51.528;21.204;2023-03-15T12:44:17;99600.41;;;6.94;72.55
22283;BME280;11310;51.528;21.204;2023-03-15T12:46:55;99599.38;;;6.98;71.36
22283;BME280;11310;51.528;21.204;2023-03-15T12:49:33;99601.09;;;6.99;72.67
22283;BME280;11310;51.528;21.204;2023-03-15T12:52:12;99597.75;;;6.95;73.55
22283;BME280;11310;51.528;21.204;2023-03-15T12:54:58;99605.22;;;7.04;74.39
22283;BME280;11310;51.528;21.204;2023-03-15T12:57:29;99602.53;;;7.06;73.77
22283;BME280;11310;51.528;21.204;2023-03-15T13:00:10;99600.94;;;7.02;74.63
22283;BME280;11310;51.528;21.204;2023-03-15T13:02:45;99606.28;;;6.99;74.87
22283;BME280;11310;51.528;21.204;2023-03-15T13:05:19;99615.72;;;7.03;73.84
22283;BME280;11310;51.528;21.204;2023-03-15T13:07:53;99612.13;;;7.05;73.19
22283;BME280;11310;51.528;21.204;2023-03-15T13:10:35;99627.78;;;7.05;72.54
22283;BME280;11310;51.528;21.204;2023-03-15T13:13:12;99626.56;;;7.14;71.65
22283;BME280;11310;51.528;21.204;2023-03-15T13:15:46;99637.91;;;7.13;74.17
22283;BME280;11310;51.528;21.204;2023-03-15T13:18:23;99633.38;;;7.18;73.85
22283;BME280;11310;51.528;21.204;2023-03-15T13:21:04;99639.09;;;7.27;74.08
22283;BME280;11310;51.528;21.204;2023-03-15T13:23:37;99648.41;;;7.33;68.38
22283;BME280;11310;51.528;21.204;2023-03-15T13:26:24;99650.59;;;7.22;70.12
22283;BME280;11310;51.528;21.204;2023-03-15T13:29:00;99647.72;;;7.06;73.80
22283;BME280;11310;51.528;21.204;2023-03-15T13:31:32;99655.03;;;6.97;74.23
22283;BME280;11310;51.528;21.204;2023-03-15T13:34:10;99656.22;;;6.88;73.63
22283;BME280;11310;51.528;21.204;2023-03-15T13:36:42;99657.94;;;6.89;74.60
22283;BME280;11310;51.528;21.204;2023-03-15T13:39:19;99658.66;;;6.93;72.38
22283;BME280;11310;51.528;21.204;2023-03-15T13:41:56;99667.25;;;6.96;72.28
22283;BME280;11310;51.528;21.204;2023-03-15T13:44:27;99658.31;;;7.02;74.33
22283;BME280;11310;51.528;21.204;2023-03-15T13:46:58;99648.91;;;7.21;73.24